Allemand, Louisiana
Current Conditions -  °F | °C
As of 6:15 PM on Friday 21 Nov 2014 (Local Time) from KHUM Reporting Station
Clear Clear  
Wind Chill: 15°   Ceiling: Unl
Heat Index: 15°   Visibility: 7mi
Dew Point: 10°   Wind: 8mph
Humidity: 72%   Direction: 70°ENE
Pressure: 30.25"   Gusts: NA
Location:  29.5867°N, 90.8252°W
Report Text: KHUM 220015Z AUTO 07007KT 7SM CLR 15/10 A3025 RMK AO2 T01530103
Loading
Personal Weather Stations






























Interactive Weather Map New forecast layout! Learn more

10-Day Weather Forecast

Advertisements
Track Severe Weather on mobile